Mount Lawley Perth Metro, Australia
Current Conditions -  °F | °C
As of 9:00 PM on Thursday 30 Oct 2014 (Local Time) from YPPH Reporting Station
Broken Clouds Broken Clouds  
Wind Chill: 64°   Ceiling: 4500
Heat Index: 64°   Visibility: 6mi
Dew Point: 52°   Wind: 14mph
Humidity: 64%   Direction: 230°SW
Pressure: 29.97"   Gusts: NA
Location:  31.92°S, 115.87°E
Report Text: YPPH 301300Z 23012KT 9999 FEW033 BKN045 18/11 Q1015
Loading
Personal Weather Stations






























Interactive Weather Map
Tropical Storm Tracking
New forecast layout! Learn more

10-Day Weather Forecast

Advertisements
Track Severe Weather on mobile